Latest Weather Observations for Red Rocks Point

IDW60801

Issued at 9:35 pm WST Sunday 20 April 2014 (issued every 30 minutes, with the page automatically refreshed every 10 minutes)

About weather observations | Map of weather stations | Latest weather observations for WA | Other Formats
Station Details ID: 011053 Name: RED ROCKS POINT Lat: -32.20 Lon: 127.53 Height: 3.1 m
Data from the previous 72 hours. | See also: Recent months for locations in Western Australia
Date/Time
WST
Temp
°C
App
Temp
°C
Dew
Point
Rel
Hum
%
Delta-T
°C
Wind Press
QNH
hPa
Press
MSL
hPa
Rain
since 9 am
mm
Dir
 
Spd
km/h
Gust
km/h
Spd
kts
Gust
kts
20/09:30pm 19.7 18.3 17.1 85 1.6 SSW 20 24 11 13 1010.9 - 0.0
20/09:00pm 19.7 18.6 17.3 86 1.5 SSW 19 26 10 14 1011.0 1011.0 0.0
20/08:30pm 19.8 18.7 17.4 86 1.5 SSW 19 26 10 14 1010.9 - 0.0
20/08:00pm 19.8 18.8 17.6 87 1.3 SSW 19 28 10 15 1010.9 - 0.0
20/07:30pm 19.8 19.3 17.8 88 1.2 SW 17 24 9 13 1010.8 - 0.0
20/07:00pm 20.3 19.9 18.1 87 1.4 SW 17 22 9 12 1010.5 - 0.0
20/06:30pm 20.7 20.6 17.9 84 1.7 SW 15 22 8 12 1010.1 - 0.0
20/06:00pm 19.8 20.4 16.8 83 1.8 SW 9 13 5 7 1009.9 1009.9 0.0
20/05:30pm 20.3 22.7 17.1 82 1.9 CALM 0 0 0 0 1009.8 - 0.0
20/05:00pm 20.9 23.5 17.5 81 2.1 CALM 0 0 0 0 1009.4 - 0.0
20/04:30pm 21.6 24.2 17.6 78 2.5 CALM 0 0 0 0 1009.1 - 0.0
20/04:00pm 22.2 24.9 17.8 76 2.7 CALM 0 0 0 0 1008.9 - 0.0
20/03:30pm 22.8 25.2 17.0 70 3.6 CALM 0 0 0 0 1009.1 - 0.0
20/03:00pm 23.4 25.9 17.2 68 3.8 CALM 0 0 0 0 1009.0 1009.0 0.0
20/02:30pm 23.2 24.0 17.2 69 3.7 ESE 9 11 5 6 1009.0 - 0.0
20/02:00pm 23.7 24.1 16.2 63 4.6 SE 9 11 5 6 1009.0 - 0.0
20/01:30pm 24.3 24.6 17.1 64 4.5 SSE 11 13 6 7 1009.1 - 0.0
20/01:00pm 24.8 24.8 16.2 58 5.3 SSE 11 17 6 9 1009.4 - 0.0
20/12:30pm 24.4 23.6 16.1 60 5.1 S 15 20 8 11 1009.6 - 0.0
20/12:00pm 24.1 24.2 16.4 62 4.7 S 11 15 6 8 1010.1 1010.1 0.0
20/11:30am 23.5 23.4 16.1 63 4.5 S 11 15 6 8 1010.6 - 0.0
20/11:00am 24.1 22.9 15.1 57 5.4 S 15 17 8 9 1010.8 - 0.0
20/10:30am 23.7 22.7 15.5 60 4.9 S 15 17 8 9 1011.3 - 0.0
20/10:00am 23.6 22.6 14.6 57 5.3 S 13 17 7 9 1011.7 - 0.0
20/09:30am 24.7 23.2 12.0 45 7.2 SSW 11 15 6 8 1011.9 - 0.0
20/09:00am 24.2 22.2 10.1 41 7.8 SW 11 15 6 8 1012.2 1012.2 0.0
20/08:30am 22.8 20.4 9.9 44 7.0 WSW 13 17 7 9 1012.5 - 0.0
20/08:00am 21.1 18.3 8.4 44 6.7 WNW 13 19 7 10 1012.6 - 0.0
20/07:30am 20.0 16.8 8.4 47 6.0 WNW 15 22 8 12 1012.6 - 0.0
20/07:00am 18.0 13.9 8.0 52 5.1 N 19 24 10 13 1012.0 - 0.0
20/06:30am 16.5 12.2 7.7 56 4.4 N 20 26 11 14 1011.9 - 0.0
20/06:00am 16.6 12.4 8.1 57 4.3 N 20 28 11 15 1011.8 1011.8 0.0
20/05:30am 16.2 12.0 8.4 60 4.0 N 20 28 11 15 1011.7 - 0.0
20/05:00am 16.1 11.7 9.1 63 3.6 N 22 30 12 16 1011.7 - 0.0
20/04:30am 16.9 12.5 9.1 60 4.0 N 22 30 12 16 1011.7 - 0.0
20/04:00am 16.7 13.0 10.1 65 3.5 N 20 26 11 14 1011.7 - 0.0
20/03:30am 16.5 12.9 10.6 68 3.1 N 20 26 11 14 1011.7 - 0.0
20/03:00am 16.6 13.4 11.3 71 2.9 N 19 26 10 14 1012.0 1012.0 0.0
20/02:30am 16.6 13.6 11.9 74 2.6 N 19 24 10 13 1012.1 - 0.0
20/02:00am 16.2 14.2 12.6 79 2.0 N 15 20 8 11 1012.6 - 0.0
20/01:30am 16.7 14.0 12.8 78 2.2 N 19 28 10 15 1012.7 - 0.0
20/01:00am 17.0 14.4 13.3 79 2.1 N 19 26 10 14 1012.9 - 0.0
20/12:30am 16.9 14.4 13.6 81 1.9 N 19 26 10 14 1013.0 - 0.0
20/12:00am 16.8 15.3 14.3 85 1.4 N 15 22 8 12 1013.2 1013.2 0.0
 
Date/Time
WST
Temp
°C
App
Temp
°C
Dew
Point
Rel
Hum
%
Delta-T
°C
Wind Press
QNH
hPa
Press
MSL
hPa
Rain
since 9 am
mm
Dir
 
Spd
km/h
Gust
km/h
Spd
kts
Gust
kts
19/11:30pm 16.0 15.0 14.5 91 0.9 NNE 13 17 7 9 1013.4 - 0.0
19/11:00pm 15.6 16.9 14.0 90 0.9 CALM 0 0 0 0 1013.7 - 0.0
19/10:30pm 15.6 15.2 14.0 90 0.9 NNE 9 11 5 6 1013.8 - 0.0
19/10:00pm 16.1 15.7 14.1 88 1.1 NE 9 11 5 6 1014.0 - 0.0
19/09:30pm 17.0 16.5 14.8 87 1.3 NE 11 15 6 8 1014.3 - 0.0
19/09:00pm 17.7 17.0 15.3 86 1.4 NE 13 17 7 9 1014.3 1014.3 0.0
19/08:30pm 18.6 18.1 16.0 85 1.5 NE 13 20 7 11 1014.4 - 0.0
19/08:00pm 20.1 18.6 17.7 86 1.5 ENE 22 26 12 14 1014.5 - 0.0
19/07:30pm 20.3 18.3 18.2 88 1.3 ENE 26 32 14 17 1014.3 - 0.0
19/07:00pm 20.6 18.0 18.7 89 1.2 ENE 30 32 16 17 1014.3 - 0.0
19/06:30pm 20.6 18.4 18.7 89 1.2 ENE 28 32 15 17 1014.2 - 0.0
19/06:00pm 20.6 18.4 18.7 89 1.2 ENE 28 35 15 19 1014.1 1014.1 0.0
19/05:30pm 20.5 18.5 18.4 88 1.3 E 26 33 14 18 1014.1 - 0.0
19/05:00pm 20.6 18.7 18.5 88 1.3 E 26 32 14 17 1013.9 - 0.0
19/04:30pm 20.8 18.1 18.4 86 1.5 E 30 35 16 19 1013.9 - 0.0
19/04:00pm 21.1 18.3 18.3 84 1.7 E 30 35 16 19 1013.8 - 0.0
19/03:30pm 21.3 19.3 18.3 83 1.9 E 26 32 14 17 1014.1 - 0.0
19/03:00pm 21.5 19.6 18.5 83 1.9 E 26 32 14 17 1014.1 1014.1 0.0
19/02:30pm 22.0 20.4 18.4 80 2.3 E 24 30 13 16 1014.2 - 0.0
19/02:00pm 21.9 19.7 18.7 82 2.0 E 28 33 15 18 1014.3 - 0.0
19/01:30pm 22.2 19.4 18.2 78 2.5 ESE 30 33 16 18 1014.8 - 0.0
19/01:00pm 23.8 22.1 17.3 67 4.0 E 22 28 12 15 1015.1 - 0.0
19/12:58pm 24.1 22.3 16.9 64 4.4 ESE 22 28 12 15 1015.0 - 0.0
19/12:30pm 29.5 27.6 14.1 39 9.3 NNE 17 24 9 13 1015.3 - 0.0
19/12:00pm 28.4 25.7 13.5 40 8.8 NNE 20 28 11 15 1015.9 1015.9 0.0
19/11:30am 27.1 24.6 14.1 44 7.7 NNE 20 28 11 15 1016.7 - 0.0
19/11:00am 26.4 23.7 13.5 45 7.6 N 20 28 11 15 1017.5 - 0.0
19/10:30am 25.0 22.7 14.2 51 6.4 NNE 19 26 10 14 1018.2 - 0.0
19/10:00am 24.3 22.6 14.7 55 5.7 NE 17 24 9 13 1018.7 - 0.0
19/09:30am 22.8 21.1 14.6 60 4.8 NNE 17 22 9 12 1019.3 - 0.0
19/09:00am 21.2 19.1 14.8 67 3.8 NNE 19 26 10 14 1019.8 1019.8 0.0
19/08:30am 19.9 17.2 14.5 71 3.1 NE 22 30 12 16 1020.2 - 0.0
19/08:00am 18.8 17.2 15.1 79 2.2 NNE 17 24 9 13 1020.5 - 0.0
19/07:30am 17.2 15.7 15.2 88 1.2 NNE 17 26 9 14 1020.6 - 0.0
19/07:00am 15.8 14.3 14.3 91 0.9 N 15 22 8 12 1020.5 - 0.0
19/06:30am 15.5 13.2 14.2 92 0.7 N 19 26 10 14 1020.3 - 0.0
19/06:00am 16.0 13.9 14.7 92 0.7 N 19 24 10 13 1020.2 1020.2 0.0
19/05:30am 15.9 14.3 14.9 94 0.6 N 17 22 9 12 1020.1 - 0.0
19/05:00am 15.9 13.9 14.9 94 0.6 N 19 26 10 14 1020.1 - 0.0
19/04:30am 15.6 14.2 14.5 93 0.6 N 15 20 8 11 1020.3 - 0.0
19/04:00am 15.6 14.2 14.5 93 0.6 NNE 15 19 8 10 1020.1 - 0.0
19/03:30am 15.8 15.2 14.5 92 0.7 NE 11 19 6 10 1020.4 - 0.0
19/03:00am 15.7 15.0 14.2 91 0.8 NE 11 17 6 9 1020.5 1020.5 0.0
19/02:30am 15.8 15.1 14.3 91 0.9 NNE 11 15 6 8 1020.5 - 0.0
19/02:00am 16.2 15.2 14.6 90 0.9 NE 13 17 7 9 1020.5 - 0.0
19/01:30am 16.3 15.3 14.5 89 1.0 NNE 13 17 7 9 1020.6 - 0.0
19/01:00am 16.9 16.3 14.7 87 1.3 NE 11 15 6 8 1020.8 - 0.0
19/12:30am 17.4 16.5 14.9 85 1.4 NE 13 17 7 9 1021.1 - 0.0
19/12:00am 17.9 17.2 15.3 85 1.5 NE 13 15 7 8 1021.2 1021.2 0.0
 
Date/Time
WST
Temp
°C
App
Temp
°C
Dew
Point
Rel
Hum
%
Delta-T
°C
Wind Press
QNH
hPa
Press
MSL
hPa
Rain
since 9 am
mm
Dir
 
Spd
km/h
Gust
km/h
Spd
kts
Gust
kts
18/11:30pm 18.3 18.0 15.4 83 1.7 NE 11 15 6 8 1021.5 - 0.0
18/11:00pm 19.3 16.1 16.2 82 1.9 ENE 28 30 15 16 1021.3 - 0.0
18/10:30pm 19.4 16.6 16.4 83 1.8 E 26 30 14 16 1021.5 - 0.0
18/10:00pm 19.6 16.8 16.4 82 1.9 E 26 30 14 16 1021.8 - 0.0
18/09:30pm 19.7 16.9 16.3 81 2.0 E 26 30 14 16 1022.1 - 0.0
18/09:00pm 19.6 17.2 16.3 81 2.0 E 24 28 13 15 1022.2 1022.2 0.0
18/08:30pm 19.5 17.1 16.3 82 1.9 E 24 28 13 15 1022.3 - 0.0
18/08:00pm 19.5 17.4 16.3 82 1.9 E 22 26 12 14 1022.5 - 0.0
18/07:30pm 19.6 17.5 16.3 81 2.0 ESE 22 26 12 14 1022.4 - 0.0
18/07:00pm 19.5 17.8 16.2 81 2.0 ESE 20 26 11 14 1022.3 - 0.0
18/06:30pm 19.4 17.6 15.9 80 2.1 ESE 20 24 11 13 1022.3 - 0.0
18/06:00pm 19.6 17.2 16.3 81 2.0 SE 24 28 13 15 1022.2 1022.2 0.0
18/05:30pm 19.7 17.6 16.3 81 2.0 ESE 22 26 12 14 1022.2 - 0.0
18/05:00pm 19.6 17.4 15.9 79 2.2 SE 22 26 12 14 1022.2 - 0.0
18/04:30pm 19.8 17.6 15.9 78 2.3 SE 22 28 12 15 1022.1 - 0.0
18/04:00pm 20.2 17.9 15.8 76 2.6 SE 22 26 12 14 1022.1 - 0.0
18/03:30pm 20.5 18.7 15.9 75 2.7 SE 20 26 11 14 1022.1 - 0.0
18/03:00pm 20.9 19.1 15.9 73 3.0 SE 20 24 11 13 1022.0 1022.0 0.0
18/02:30pm 21.2 19.4 16.0 72 3.1 SE 20 24 11 13 1022.1 - 0.0
18/02:00pm 21.3 19.5 15.6 70 3.4 SE 19 22 10 12 1022.4 - 0.0
18/01:30pm 21.9 20.4 16.2 70 3.4 SE 19 22 10 12 1022.5 - 0.0
18/01:00pm 22.1 20.8 15.9 68 3.7 SE 17 20 9 11 1022.5 - 0.0
18/12:30pm 22.0 21.1 15.8 68 3.7 SE 15 19 8 10 1022.7 - 0.0
18/12:00pm 21.6 20.3 15.9 70 3.4 SE 17 20 9 11 1023.2 1023.2 0.0
18/11:30am 22.3 21.1 16.1 68 3.7 SE 17 20 9 11 1023.5 - 0.0
18/11:00am 23.0 21.9 16.3 66 4.1 ESE 17 20 9 11 1023.9 - 0.0
18/10:30am 22.5 21.4 16.3 68 3.8 SE 17 20 9 11 1024.3 - 0.0
18/10:00am 21.9 20.7 16.0 69 3.6 SE 17 20 9 11 1024.3 - 0.0
18/09:30am 22.0 20.9 16.3 70 3.4 ESE 17 20 9 11 1024.4 - 0.0
18/09:00am 21.4 19.6 15.5 69 3.5 ESE 19 24 10 13 1024.4 1024.4 0.0
18/08:30am 21.2 19.6 16.0 72 3.1 ESE 19 24 10 13 1024.4 - 0.0
18/08:00am 20.7 18.8 15.7 73 3.0 ESE 20 24 11 13 1024.3 - 0.0
18/07:30am 20.1 18.4 15.7 76 2.6 ESE 19 24 10 13 1024.1 - 0.0
18/07:00am 19.9 18.7 16.0 78 2.3 SE 17 22 9 12 1023.8 - 0.0
18/06:30am 19.3 17.6 15.8 80 2.1 SE 19 20 10 11 1023.6 - 0.0
18/06:00am 19.2 17.5 15.7 80 2.1 SE 19 20 10 11 1023.3 1023.3 0.0
18/05:30am 19.2 16.8 15.5 79 2.2 SE 22 26 12 14 1023.1 - 0.0
18/05:00am 19.4 16.5 16.2 82 1.9 SE 26 30 14 16 1022.8 - 0.0
18/04:30am 19.2 16.1 15.7 80 2.1 SSE 26 30 14 16 1022.7 - 0.0
18/04:00am 19.3 16.0 16.0 81 2.0 SSE 28 32 15 17 1022.5 - 0.0
18/03:30am 19.2 15.8 15.9 81 2.0 SSE 28 32 15 17 1022.3 - 0.0
18/03:00am 19.5 15.9 16.3 82 1.9 SSE 30 33 16 18 1022.1 1022.1 0.0
18/02:30am 19.5 16.3 16.3 82 1.9 SSE 28 32 15 17 1021.8 - 0.0
18/02:00am 19.7 17.0 16.7 83 1.8 SSE 26 30 14 16 1021.9 - 0.0
18/01:30am 19.8 16.8 16.8 83 1.8 SSE 28 32 15 17 1022.1 - 0.0
18/01:00am 19.9 16.5 16.7 82 1.9 SSE 30 35 16 19 1022.2 - 0.0
18/12:30am 19.8 16.0 16.6 82 1.9 SSE 32 35 17 19 1022.0 - 0.0
18/12:00am 19.8 16.1 17.0 84 1.7 S 32 37 17 20 1022.0 1022.0 0.0
 
Date/Time
WST
Temp
°C
App
Temp
°C
Dew
Point
Rel
Hum
%
Delta-T
°C
Wind Press
QNH
hPa
Press
MSL
hPa
Rain
since 9 am
mm
Dir
 
Spd
km/h
Gust
km/h
Spd
kts
Gust
kts
17/11:30pm 19.9 16.6 17.1 84 1.7 S 30 35 16 19 1022.0 - 0.0
17/11:00pm 19.9 16.6 17.1 84 1.7 S 30 35 16 19 1021.8 - 0.0
17/10:30pm 20.1 16.6 17.5 85 1.6 S 32 35 17 19 1021.7 - 0.0
17/10:00pm 20.1 16.7 17.7 86 1.5 S 32 35 17 19 1021.7 - 0.0

Other Formats:

Comma delimited format used in spreadsheet applications
http://www.bom.gov.au/fwo/IDW60801/IDW60801.94644.axf

JavaScript Object Notation format (JSON) in row-major order
http://www.bom.gov.au/fwo/IDW60801/IDW60801.94644.json